sensor_id;sensor_type;location;lat;lon;timestamp;temperature;humidity
9847;DHT22;4962;50.084;8.794;2022-10-18T00:00:17;20.30;99.90
9847;DHT22;4962;50.084;8.794;2022-10-18T00:02:44;20.40;99.90
9847;DHT22;4962;50.084;8.794;2022-10-18T00:05:15;20.40;99.90
9847;DHT22;4962;50.084;8.794;2022-10-18T00:07:42;20.40;99.90
9847;DHT22;4962;50.084;8.794;2022-10-18T00:10:10;20.40;99.90
9847;DHT22;4962;50.084;8.794;2022-10-18T00:12:38;20.40;99.90
9847;DHT22;4962;50.084;8.794;2022-10-18T00:15:06;20.40;99.90
9847;DHT22;4962;50.084;8.794;2022-10-18T00:17:34;20.50;99.90
9847;DHT22;4962;50.084;8.794;2022-10-18T00:20:01;20.40;99.90
9847;DHT22;4962;50.084;8.794;2022-10-18T00:22:28;20.50;99.90
9847;DHT22;4962;50.084;8.794;2022-10-18T00:24:55;20.50;99.90
9847;DHT22;4962;50.084;8.794;2022-10-18T00:27:24;20.50;99.90
9847;DHT22;4962;50.084;8.794;2022-10-18T00:29:51;20.50;99.90
9847;DHT22;4962;50.084;8.794;2022-10-18T00:32:18;20.50;99.90
9847;DHT22;4962;50.084;8.794;2022-10-18T00:34:49;20.50;99.90
9847;DHT22;4962;50.084;8.794;2022-10-18T00:37:16;20.60;99.90
9847;DHT22;4962;50.084;8.794;2022-10-18T00:39:44;20.50;99.90
9847;DHT22;4962;50.084;8.794;2022-10-18T00:42:15;20.50;99.90
9847;DHT22;4962;50.084;8.794;2022-10-18T00:47:52;20.50;99.90
9847;DHT22;4962;50.084;8.794;2022-10-18T00:50:22;20.60;99.90
9847;DHT22;4962;50.084;8.794;2022-10-18T00:52:56;20.50;99.90
9847;DHT22;4962;50.084;8.794;2022-10-18T00:58:10;20.50;99.90
9847;DHT22;4962;50.084;8.794;2022-10-18T01:00:42;20.50;99.90
9847;DHT22;4962;50.084;8.794;2022-10-18T01:03:09;20.50;99.90
9847;DHT22;4962;50.084;8.794;2022-10-18T01:05:41;20.40;99.90
9847;DHT22;4962;50.084;8.794;2022-10-18T01:08:29;20.30;99.90
9847;DHT22;4962;50.084;8.794;2022-10-18T01:11:13;20.20;99.90
9847;DHT22;4962;50.084;8.794;2022-10-18T01:13:55;20.20;99.90
9847;DHT22;4962;50.084;8.794;2022-10-18T01:16:28;20.20;99.90
9847;DHT22;4962;50.084;8.794;2022-10-18T01:18:59;20.20;99.90
9847;DHT22;4962;50.084;8.794;2022-10-18T01:21:34;20.10;99.90
9847;DHT22;4962;50.084;8.794;2022-10-18T01:24:38;20.10;99.90
9847;DHT22;4962;50.084;8.794;2022-10-18T01:27:23;20.00;99.90
9847;DHT22;4962;50.084;8.794;2022-10-18T01:30:19;19.90;99.90
9847;DHT22;4962;50.084;8.794;2022-10-18T01:32:52;19.90;99.90
9847;DHT22;4962;50.084;8.794;2022-10-18T01:35:25;19.90;99.90
9847;DHT22;4962;50.084;8.794;2022-10-18T01:37:55;19.90;99.90
9847;DHT22;4962;50.084;8.794;2022-10-18T01:40:23;19.90;99.90
9847;DHT22;4962;50.084;8.794;2022-10-18T01:42:51;19.90;99.90
9847;DHT22;4962;50.084;8.794;2022-10-18T01:45:20;20.00;99.90
9847;DHT22;4962;50.084;8.794;2022-10-18T01:47:49;19.90;99.90
9847;DHT22;4962;50.084;8.794;2022-10-18T01:50:27;19.90;99.90
9847;DHT22;4962;50.084;8.794;2022-10-18T01:52:54;20.00;99.90
9847;DHT22;4962;50.084;8.794;2022-10-18T01:55:34;19.90;99.90
9847;DHT22;4962;50.084;8.794;2022-10-18T01:58:07;20.00;99.90
9847;DHT22;4962;50.084;8.794;2022-10-18T02:00:38;20.00;99.90
9847;DHT22;4962;50.084;8.794;2022-10-18T02:03:13;20.00;99.90
9847;DHT22;4962;50.084;8.794;2022-10-18T02:05:45;20.10;99.90
9847;DHT22;4962;50.084;8.794;2022-10-18T02:08:20;20.10;99.90
9847;DHT22;4962;50.084;8.794;2022-10-18T02:10:56;20.00;99.90
9847;DHT22;4962;50.084;8.794;2022-10-18T02:13:27;19.90;99.90
9847;DHT22;4962;50.084;8.794;2022-10-18T02:16:00;19.90;99.90
9847;DHT22;4962;50.084;8.794;2022-10-18T02:18:33;19.80;99.90
9847;DHT22;4962;50.084;8.794;2022-10-18T02:21:02;19.80;99.90
9847;DHT22;4962;50.084;8.794;2022-10-18T02:23:31;19.80;99.90
9847;DHT22;4962;50.084;8.794;2022-10-18T02:25:59;19.90;99.90
9847;DHT22;4962;50.084;8.794;2022-10-18T02:28:26;19.80;99.90
9847;DHT22;4962;50.084;8.794;2022-10-18T02:31:01;19.80;99.90
9847;DHT22;4962;50.084;8.794;2022-10-18T02:33:34;19.80;99.90
9847;DHT22;4962;50.084;8.794;2022-10-18T02:36:10;19.80;99.90
9847;DHT22;4962;50.084;8.794;2022-10-18T02:38:40;19.90;99.90
9847;DHT22;4962;50.084;8.794;2022-10-18T02:41:07;19.90;99.90
9847;DHT22;4962;50.084;8.794;2022-10-18T02:43:34;19.90;99.90
9847;DHT22;4962;50.084;8.794;2022-10-18T02:46:03;19.80;99.90
9847;DHT22;4962;50.084;8.794;2022-10-18T02:48:30;19.80;99.90
9847;DHT22;4962;50.084;8.794;2022-10-18T02:50:57;19.80;99.90
9847;DHT22;4962;50.084;8.794;2022-10-18T02:53:23;19.80;99.90
9847;DHT22;4962;50.084;8.794;2022-10-18T02:55:50;19.80;99.90
9847;DHT22;4962;50.084;8.794;2022-10-18T02:58:17;19.80;99.90
9847;DHT22;4962;50.084;8.794;2022-10-18T03:00:44;19.80;99.90
9847;DHT22;4962;50.084;8.794;2022-10-18T03:03:12;19.80;99.90
9847;DHT22;4962;50.084;8.794;2022-10-18T03:05:39;19.80;99.90
9847;DHT22;4962;50.084;8.794;2022-10-18T03:08:06;19.90;99.90
9847;DHT22;4962;50.084;8.794;2022-10-18T03:10:33;19.90;99.90
9847;DHT22;4962;50.084;8.794;2022-10-18T03:13:00;19.90;99.90
9847;DHT22;4962;50.084;8.794;2022-10-18T03:15:27;19.90;99.90
9847;DHT22;4962;50.084;8.794;2022-10-18T03:17:54;19.90;99.90
9847;DHT22;4962;50.084;8.794;2022-10-18T03:20:23;20.00;99.90
9847;DHT22;4962;50.084;8.794;2022-10-18T03:22:49;20.00;99.90
9847;DHT22;4962;50.084;8.794;2022-10-18T03:25:16;20.00;99.90
9847;DHT22;4962;50.084;8.794;2022-10-18T03:27:43;20.00;99.90
9847;DHT22;4962;50.084;8.794;2022-10-18T03:30:10;20.00;99.90
9847;DHT22;4962;50.084;8.794;2022-10-18T03:32:38;20.10;99.90
9847;DHT22;4962;50.084;8.794;2022-10-18T03:35:06;20.10;99.90
9847;DHT22;4962;50.084;8.794;2022-10-18T03:37:35;20.10;99.90
9847;DHT22;4962;50.084;8.794;2022-10-18T03:40:02;20.10;99.90
9847;DHT22;4962;50.084;8.794;2022-10-18T03:42:29;20.20;99.90
9847;DHT22;4962;50.084;8.794;2022-10-18T03:44:56;20.10;99.90
9847;DHT22;4962;50.084;8.794;2022-10-18T03:47:23;20.10;99.90
9847;DHT22;4962;50.084;8.794;2022-10-18T03:49:50;20.20;99.90
9847;DHT22;4962;50.084;8.794;2022-10-18T03:52:17;20.20;99.90
9847;DHT22;4962;50.084;8.794;2022-10-18T03:54:45;20.10;99.90
9847;DHT22;4962;50.084;8.794;2022-10-18T03:57:12;20.20;99.90
9847;DHT22;4962;50.084;8.794;2022-10-18T03:59:39;20.20;99.90
9847;DHT22;4962;50.084;8.794;2022-10-18T04:02:06;20.20;99.90
9847;DHT22;4962;50.084;8.794;2022-10-18T04:04:33;20.10;99.90
9847;DHT22;4962;50.084;8.794;2022-10-18T04:07:00;20.10;99.90
9847;DHT22;4962;50.084;8.794;2022-10-18T04:09:26;20.20;99.90
9847;DHT22;4962;50.084;8.794;2022-10-18T04:11:55;20.20;99.90
9847;DHT22;4962;50.084;8.794;2022-10-18T04:14:21;20.20;99.90
9847;DHT22;4962;50.084;8.794;2022-10-18T04:16:48;20.20;99.90
9847;DHT22;4962;50.084;8.794;2022-10-18T04:19:15;20.20;99.90
9847;DHT22;4962;50.084;8.794;2022-10-18T04:21:42;20.20;99.90
9847;DHT22;4962;50.084;8.794;2022-10-18T04:24:09;20.20;99.90
9847;DHT22;4962;50.084;8.794;2022-10-18T04:26:36;20.20;99.90
9847;DHT22;4962;50.084;8.794;2022-10-18T04:29:04;20.20;99.90
9847;DHT22;4962;50.084;8.794;2022-10-18T04:31:31;20.20;99.90
9847;DHT22;4962;50.084;8.794;2022-10-18T04:33:58;20.20;99.90
9847;DHT22;4962;50.084;8.794;2022-10-18T04:36:25;20.20;99.90
9847;DHT22;4962;50.084;8.794;2022-10-18T04:38:52;20.20;99.90
9847;DHT22;4962;50.084;8.794;2022-10-18T04:41:19;20.20;99.90
9847;DHT22;4962;50.084;8.794;2022-10-18T04:43:46;20.20;99.90
9847;DHT22;4962;50.084;8.794;2022-10-18T04:46:14;20.20;99.90
9847;DHT22;4962;50.084;8.794;2022-10-18T04:48:41;20.20;99.90
9847;DHT22;4962;50.084;8.794;2022-10-18T04:51:08;20.20;99.90
9847;DHT22;4962;50.084;8.794;2022-10-18T04:53:35;20.20;99.90
9847;DHT22;4962;50.084;8.794;2022-10-18T04:56:11;20.20;99.90
9847;DHT22;4962;50.084;8.794;2022-10-18T04:58:38;20.20;99.90
9847;DHT22;4962;50.084;8.794;2022-10-18T05:01:05;20.20;99.90
9847;DHT22;4962;50.084;8.794;2022-10-18T05:03:34;20.20;99.90
9847;DHT22;4962;50.084;8.794;2022-10-18T05:06:01;20.20;99.90
9847;DHT22;4962;50.084;8.794;2022-10-18T05:08:28;20.20;99.90
9847;DHT22;4962;50.084;8.794;2022-10-18T05:10:55;20.20;99.90
9847;DHT22;4962;50.084;8.794;2022-10-18T05:13:22;20.20;99.90
9847;DHT22;4962;50.084;8.794;2022-10-18T05:15:49;20.20;99.90
9847;DHT22;4962;50.084;8.794;2022-10-18T05:18:16;20.20;99.90
9847;DHT22;4962;50.084;8.794;2022-10-18T05:20:45;20.20;99.90
9847;DHT22;4962;50.084;8.794;2022-10-18T05:23:12;20.20;99.90
9847;DHT22;4962;50.084;8.794;2022-10-18T05:25:39;20.20;99.90
9847;DHT22;4962;50.084;8.794;2022-10-18T05:28:06;20.20;99.90
9847;DHT22;4962;50.084;8.794;2022-10-18T05:30:36;20.20;99.90
9847;DHT22;4962;50.084;8.794;2022-10-18T05:33:04;20.20;99.90
9847;DHT22;4962;50.084;8.794;2022-10-18T05:35:31;20.20;99.90
9847;DHT22;4962;50.084;8.794;2022-10-18T05:38:01;20.10;99.90
9847;DHT22;4962;50.084;8.794;2022-10-18T05:40:27;20.10;99.90
9847;DHT22;4962;50.084;8.794;2022-10-18T05:42:54;20.10;99.90
9847;DHT22;4962;50.084;8.794;2022-10-18T05:45:21;20.10;99.90
9847;DHT22;4962;50.084;8.794;2022-10-18T05:47:48;20.20;99.90
9847;DHT22;4962;50.084;8.794;2022-10-18T05:50:15;20.10;99.90
9847;DHT22;4962;50.084;8.794;2022-10-18T05:52:46;20.20;99.90
9847;DHT22;4962;50.084;8.794;2022-10-18T05:55:14;20.10;99.90
9847;DHT22;4962;50.084;8.794;2022-10-18T05:57:41;20.10;99.90
9847;DHT22;4962;50.084;8.794;2022-10-18T06:00:10;20.10;99.90
9847;DHT22;4962;50.084;8.794;2022-10-18T06:02:37;20.10;99.90
9847;DHT22;4962;50.084;8.794;2022-10-18T06:05:04;20.10;99.90
9847;DHT22;4962;50.084;8.794;2022-10-18T06:07:31;20.20;99.90
9847;DHT22;4962;50.084;8.794;2022-10-18T06:09:58;20.10;99.90
9847;DHT22;4962;50.084;8.794;2022-10-18T06:12:34;20.20;99.90
9847;DHT22;4962;50.084;8.794;2022-10-18T06:15:01;20.20;99.90
9847;DHT22;4962;50.084;8.794;2022-10-18T06:17:28;20.10;99.90
9847;DHT22;4962;50.084;8.794;2022-10-18T06:19:55;20.10;99.90
9847;DHT22;4962;50.084;8.794;2022-10-18T06:22:22;20.10;99.90
9847;DHT22;4962;50.084;8.794;2022-10-18T06:24:49;20.10;99.90
9847;DHT22;4962;50.084;8.794;2022-10-18T06:27:16;20.10;99.90
9847;DHT22;4962;50.084;8.794;2022-10-18T06:29:44;20.10;99.90
9847;DHT22;4962;50.084;8.794;2022-10-18T06:32:11;20.10;99.90
9847;DHT22;4962;50.084;8.794;2022-10-18T06:34:38;20.10;99.90
9847;DHT22;4962;50.084;8.794;2022-10-18T06:37:05;20.10;99.90
9847;DHT22;4962;50.084;8.794;2022-10-18T06:39:32;20.10;99.90
9847;DHT22;4962;50.084;8.794;2022-10-18T06:41:59;20.10;99.90
9847;DHT22;4962;50.084;8.794;2022-10-18T06:44:26;20.10;99.90
9847;DHT22;4962;50.084;8.794;2022-10-18T06:46:54;20.20;99.90
9847;DHT22;4962;50.084;8.794;2022-10-18T06:49:21;20.10;99.90
9847;DHT22;4962;50.084;8.794;2022-10-18T06:51:48;20.10;99.90
9847;DHT22;4962;50.084;8.794;2022-10-18T06:54:15;20.10;99.90
9847;DHT22;4962;50.084;8.794;2022-10-18T06:56:42;20.10;99.90
9847;DHT22;4962;50.084;8.794;2022-10-18T06:59:09;20.10;99.90
9847;DHT22;4962;50.084;8.794;2022-10-18T07:01:36;20.20;99.90
9847;DHT22;4962;50.084;8.794;2022-10-18T07:04:04;20.20;99.90
9847;DHT22;4962;50.084;8.794;2022-10-18T07:06:31;20.10;99.90
9847;DHT22;4962;50.084;8.794;2022-10-18T07:08:58;20.10;99.90
9847;DHT22;4962;50.084;8.794;2022-10-18T07:11:27;20.20;99.90
9847;DHT22;4962;50.084;8.794;2022-10-18T07:13:58;20.10;99.90
9847;DHT22;4962;50.084;8.794;2022-10-18T07:16:30;20.10;99.90
9847;DHT22;4962;50.084;8.794;2022-10-18T07:18:57;20.10;99.90
9847;DHT22;4962;50.084;8.794;2022-10-18T07:21:25;20.20;99.90
9847;DHT22;4962;50.084;8.794;2022-10-18T07:23:52;20.20;99.90
9847;DHT22;4962;50.084;8.794;2022-10-18T07:26:21;20.20;99.90
9847;DHT22;4962;50.084;8.794;2022-10-18T07:28:51;20.20;99.90
9847;DHT22;4962;50.084;8.794;2022-10-18T07:31:20;20.30;99.90
9847;DHT22;4962;50.084;8.794;2022-10-18T07:33:47;20.30;99.90
9847;DHT22;4962;50.084;8.794;2022-10-18T07:36:14;20.30;99.90
9847;DHT22;4962;50.084;8.794;2022-10-18T07:38:42;20.30;99.90
9847;DHT22;4962;50.084;8.794;2022-10-18T07:41:10;20.40;99.90
9847;DHT22;4962;50.084;8.794;2022-10-18T07:43:41;20.40;99.90
9847;DHT22;4962;50.084;8.794;2022-10-18T07:46:10;20.50;99.90
9847;DHT22;4962;50.084;8.794;2022-10-18T07:48:37;20.60;99.90
9847;DHT22;4962;50.084;8.794;2022-10-18T07:51:05;20.60;99.90
9847;DHT22;4962;50.084;8.794;2022-10-18T07:53:32;20.60;99.90
9847;DHT22;4962;50.084;8.794;2022-10-18T07:56:02;20.70;99.90
9847;DHT22;4962;50.084;8.794;2022-10-18T07:58:30;20.70;99.90
9847;DHT22;4962;50.084;8.794;2022-10-18T08:01:00;20.80;99.90
9847;DHT22;4962;50.084;8.794;2022-10-18T08:03:27;20.70;99.90
9847;DHT22;4962;50.084;8.794;2022-10-18T08:05:54;20.70;99.90
9847;DHT22;4962;50.084;8.794;2022-10-18T08:08:26;20.80;99.90
9847;DHT22;4962;50.084;8.794;2022-10-18T08:10:53;20.80;99.90
9847;DHT22;4962;50.084;8.794;2022-10-18T08:13:21;20.80;99.90
9847;DHT22;4962;50.084;8.794;2022-10-18T08:15:48;20.90;99.90
9847;DHT22;4962;50.084;8.794;2022-10-18T08:18:15;20.90;99.90
9847;DHT22;4962;50.084;8.794;2022-10-18T08:20:43;20.90;99.90
9847;DHT22;4962;50.084;8.794;2022-10-18T08:23:10;21.00;99.90
9847;DHT22;4962;50.084;8.794;2022-10-18T08:25:37;20.90;99.90
9847;DHT22;4962;50.084;8.794;2022-10-18T08:28:04;20.90;99.90
9847;DHT22;4962;50.084;8.794;2022-10-18T08:30:33;20.90;99.90
9847;DHT22;4962;50.084;8.794;2022-10-18T08:33:00;20.90;99.90
9847;DHT22;4962;50.084;8.794;2022-10-18T08:35:27;20.90;99.90
9847;DHT22;4962;50.084;8.794;2022-10-18T08:37:54;20.90;99.90
9847;DHT22;4962;50.084;8.794;2022-10-18T08:40:21;20.80;99.90
9847;DHT22;4962;50.084;8.794;2022-10-18T08:42:59;20.80;99.90
9847;DHT22;4962;50.084;8.794;2022-10-18T08:45:29;20.80;99.90
9847;DHT22;4962;50.084;8.794;2022-10-18T08:48:03;20.80;99.90
9847;DHT22;4962;50.084;8.794;2022-10-18T08:50:33;20.80;99.90
9847;DHT22;4962;50.084;8.794;2022-10-18T08:53:08;20.80;99.90
9847;DHT22;4962;50.084;8.794;2022-10-18T08:55:42;20.90;99.90
9847;DHT22;4962;50.084;8.794;2022-10-18T08:58:14;20.90;99.90
9847;DHT22;4962;50.084;8.794;2022-10-18T09:00:47;21.00;99.90
9847;DHT22;4962;50.084;8.794;2022-10-18T09:03:34;21.00;99.90
9847;DHT22;4962;50.084;8.794;2022-10-18T09:06:13;21.00;99.90
9847;DHT22;4962;50.084;8.794;2022-10-18T09:08:58;21.00;99.90
9847;DHT22;4962;50.084;8.794;2022-10-18T09:11:39;21.00;99.90
9847;DHT22;4962;50.084;8.794;2022-10-18T09:17:16;21.00;99.90
9847;DHT22;4962;50.084;8.794;2022-10-18T09:19:58;21.00;99.90
9847;DHT22;4962;50.084;8.794;2022-10-18T09:22:39;21.00;99.90
9847;DHT22;4962;50.084;8.794;2022-10-18T09:25:16;21.10;99.90
9847;DHT22;4962;50.084;8.794;2022-10-18T09:27:55;21.00;99.90
9847;DHT22;4962;50.084;8.794;2022-10-18T09:30:38;21.00;99.90
9847;DHT22;4962;50.084;8.794;2022-10-18T09:33:33;21.00;99.90
9847;DHT22;4962;50.084;8.794;2022-10-18T09:36:05;21.00;99.90
9847;DHT22;4962;50.084;8.794;2022-10-18T09:38:39;21.00;99.90
9847;DHT22;4962;50.084;8.794;2022-10-18T09:41:12;20.90;99.90
9847;DHT22;4962;50.084;8.794;2022-10-18T09:43:46;20.90;99.90
9847;DHT22;4962;50.084;8.794;2022-10-18T09:46:16;20.90;99.90
9847;DHT22;4962;50.084;8.794;2022-10-18T09:48:47;20.80;99.90
9847;DHT22;4962;50.084;8.794;2022-10-18T09:51:18;20.90;99.90
9847;DHT22;4962;50.084;8.794;2022-10-18T09:53:59;20.80;99.90
9847;DHT22;4962;50.084;8.794;2022-10-18T09:56:39;20.80;99.90
9847;DHT22;4962;50.084;8.794;2022-10-18T09:59:23;20.80;99.90
9847;DHT22;4962;50.084;8.794;2022-10-18T10:01:53;20.90;99.90
9847;DHT22;4962;50.084;8.794;2022-10-18T10:04:20;20.90;99.90
9847;DHT22;4962;50.084;8.794;2022-10-18T10:06:51;21.00;99.90
9847;DHT22;4962;50.084;8.794;2022-10-18T10:09:24;21.00;99.90
9847;DHT22;4962;50.084;8.794;2022-10-18T10:11:52;21.00;99.90
9847;DHT22;4962;50.084;8.794;2022-10-18T10:14:21;21.10;99.90
9847;DHT22;4962;50.084;8.794;2022-10-18T10:16:52;21.10;99.90
9847;DHT22;4962;50.084;8.794;2022-10-18T10:19:23;21.20;99.90
9847;DHT22;4962;50.084;8.794;2022-10-18T10:21:58;21.30;99.90
9847;DHT22;4962;50.084;8.794;2022-10-18T10:24:33;21.40;99.90
9847;DHT22;4962;50.084;8.794;2022-10-18T10:27:03;21.50;99.90
9847;DHT22;4962;50.084;8.794;2022-10-18T10:29:54;21.70;99.90
9847;DHT22;4962;50.084;8.794;2022-10-18T10:32:24;21.80;99.90
9847;DHT22;4962;50.084;8.794;2022-10-18T10:34:52;21.90;99.90
9847;DHT22;4962;50.084;8.794;2022-10-18T10:37:30;22.00;99.90
9847;DHT22;4962;50.084;8.794;2022-10-18T10:40:17;22.00;99.90
9847;DHT22;4962;50.084;8.794;2022-10-18T10:42:55;22.00;99.90
9847;DHT22;4962;50.084;8.794;2022-10-18T10:45:24;22.10;99.90
9847;DHT22;4962;50.084;8.794;2022-10-18T10:47:52;22.10;99.90
9847;DHT22;4962;50.084;8.794;2022-10-18T10:50:25;22.20;99.90
9847;DHT22;4962;50.084;8.794;2022-10-18T10:52:53;22.30;99.90
9847;DHT22;4962;50.084;8.794;2022-10-18T10:55:24;22.30;99.90
9847;DHT22;4962;50.084;8.794;2022-10-18T10:57:54;22.40;99.90
9847;DHT22;4962;50.084;8.794;2022-10-18T11:00:36;22.30;99.90
9847;DHT22;4962;50.084;8.794;2022-10-18T11:03:10;22.30;99.90
9847;DHT22;4962;50.084;8.794;2022-10-18T11:05:44;22.20;99.90
9847;DHT22;4962;50.084;8.794;2022-10-18T11:08:14;22.20;99.90
9847;DHT22;4962;50.084;8.794;2022-10-18T11:10:52;22.10;99.90
9847;DHT22;4962;50.084;8.794;2022-10-18T11:13:30;22.10;99.90
9847;DHT22;4962;50.084;8.794;2022-10-18T11:16:04;22.10;99.90
9847;DHT22;4962;50.084;8.794;2022-10-18T11:18:36;22.00;99.90
9847;DHT22;4962;50.084;8.794;2022-10-18T11:21:08;22.00;99.90
9847;DHT22;4962;50.084;8.794;2022-10-18T11:23:39;22.00;99.90
9847;DHT22;4962;50.084;8.794;2022-10-18T11:26:32;22.10;99.90
9847;DHT22;4962;50.084;8.794;2022-10-18T11:29:09;22.10;99.90
9847;DHT22;4962;50.084;8.794;2022-10-18T11:31:47;22.00;99.90
9847;DHT22;4962;50.084;8.794;2022-10-18T11:34:30;21.90;99.90
9847;DHT22;4962;50.084;8.794;2022-10-18T11:37:06;21.90;99.90
9847;DHT22;4962;50.084;8.794;2022-10-18T11:39:42;21.80;99.90
9847;DHT22;4962;50.084;8.794;2022-10-18T11:42:18;21.80;99.90
9847;DHT22;4962;50.084;8.794;2022-10-18T11:44:56;21.80;99.90
9847;DHT22;4962;50.084;8.794;2022-10-18T11:47:32;21.80;99.90
9847;DHT22;4962;50.084;8.794;2022-10-18T11:50:08;21.90;99.90
9847;DHT22;4962;50.084;8.794;2022-10-18T11:52:44;22.00;99.90
9847;DHT22;4962;50.084;8.794;2022-10-18T11:55:33;22.10;99.90
9847;DHT22;4962;50.084;8.794;2022-10-18T11:58:10;22.10;99.90
9847;DHT22;4962;50.084;8.794;2022-10-18T12:00:45;22.20;99.90
9847;DHT22;4962;50.084;8.794;2022-10-18T12:03:24;22.20;99.90
9847;DHT22;4962;50.084;8.794;2022-10-18T12:05:55;22.30;99.90
9847;DHT22;4962;50.084;8.794;2022-10-18T12:08:27;22.30;99.90
9847;DHT22;4962;50.084;8.794;2022-10-18T12:11:05;22.40;99.90
9847;DHT22;4962;50.084;8.794;2022-10-18T12:13:37;22.50;99.90
9847;DHT22;4962;50.084;8.794;2022-10-18T12:16:06;22.50;99.90
9847;DHT22;4962;50.084;8.794;2022-10-18T12:18:49;22.50;99.90
9847;DHT22;4962;50.084;8.794;2022-10-18T12:21:20;22.50;99.90
9847;DHT22;4962;50.084;8.794;2022-10-18T12:23:51;22.50;99.90
9847;DHT22;4962;50.084;8.794;2022-10-18T12:26:20;22.40;99.90
9847;DHT22;4962;50.084;8.794;2022-10-18T12:28:55;22.30;99.90
9847;DHT22;4962;50.084;8.794;2022-10-18T12:31:27;22.30;99.90
9847;DHT22;4962;50.084;8.794;2022-10-18T12:34:00;22.30;99.90
9847;DHT22;4962;50.084;8.794;2022-10-18T12:36:51;22.20;99.90
9847;DHT22;4962;50.084;8.794;2022-10-18T12:39:25;22.20;99.90
9847;DHT22;4962;50.084;8.794;2022-10-18T12:41:55;22.20;99.90
9847;DHT22;4962;50.084;8.794;2022-10-18T12:44:27;22.20;99.90
9847;DHT22;4962;50.084;8.794;2022-10-18T12:46:57;22.10;99.90
9847;DHT22;4962;50.084;8.794;2022-10-18T12:49:28;22.10;99.90
9847;DHT22;4962;50.084;8.794;2022-10-18T12:52:19;22.10;99.90
9847;DHT22;4962;50.084;8.794;2022-10-18T12:55:03;22.10;99.90
9847;DHT22;4962;50.084;8.794;2022-10-18T12:58:00;22.10;99.90
9847;DHT22;4962;50.084;8.794;2022-10-18T13:00:50;22.00;99.90
9847;DHT22;4962;50.084;8.794;2022-10-18T13:03:49;22.00;99.90
9847;DHT22;4962;50.084;8.794;2022-10-18T13:06:17;21.90;99.90
9847;DHT22;4962;50.084;8.794;2022-10-18T13:08:44;21.90;99.90
9847;DHT22;4962;50.084;8.794;2022-10-18T13:11:29;21.80;99.90
9847;DHT22;4962;50.084;8.794;2022-10-18T13:14:25;21.80;99.90
9847;DHT22;4962;50.084;8.794;2022-10-18T13:17:02;21.80;99.90
9847;DHT22;4962;50.084;8.794;2022-10-18T13:19:37;21.80;99.90
9847;DHT22;4962;50.084;8.794;2022-10-18T13:22:18;21.80;99.90
9847;DHT22;4962;50.084;8.794;2022-10-18T13:24:58;21.80;99.90
9847;DHT22;4962;50.084;8.794;2022-10-18T13:27:51;21.80;99.90
9847;DHT22;4962;50.084;8.794;2022-10-18T13:30:42;21.80;99.90
9847;DHT22;4962;50.084;8.794;2022-10-18T13:33:22;21.80;99.90
9847;DHT22;4962;50.084;8.794;2022-10-18T13:35:53;21.70;99.90
9847;DHT22;4962;50.084;8.794;2022-10-18T13:38:42;21.70;99.90
9847;DHT22;4962;50.084;8.794;2022-10-18T13:41:14;21.70;99.90
9847;DHT22;4962;50.084;8.794;2022-10-18T13:43:56;21.80;99.90
9847;DHT22;4962;50.084;8.794;2022-10-18T13:50:01;21.80;99.90
9847;DHT22;4962;50.084;8.794;2022-10-18T13:52:46;21.80;99.90
9847;DHT22;4962;50.084;8.794;2022-10-18T13:55:37;21.80;99.90
9847;DHT22;4962;50.084;8.794;2022-10-18T13:58:15;21.80;99.90
9847;DHT22;4962;50.084;8.794;2022-10-18T14:00:52;21.80;99.90
9847;DHT22;4962;50.084;8.794;2022-10-18T14:03:37;21.80;99.90
9847;DHT22;4962;50.084;8.794;2022-10-18T14:06:14;21.80;99.90
9847;DHT22;4962;50.084;8.794;2022-10-18T14:08:44;21.70;99.90
9847;DHT22;4962;50.084;8.794;2022-10-18T14:11:21;21.70;99.90
9847;DHT22;4962;50.084;8.794;2022-10-18T14:13:54;21.70;99.90
9847;DHT22;4962;50.084;8.794;2022-10-18T14:16:29;21.70;99.90
9847;DHT22;4962;50.084;8.794;2022-10-18T14:19:04;21.70;99.90
9847;DHT22;4962;50.084;8.794;2022-10-18T14:21:37;21.60;99.90
9847;DHT22;4962;50.084;8.794;2022-10-18T14:24:16;21.60;99.90
9847;DHT22;4962;50.084;8.794;2022-10-18T14:27:14;21.60;99.90
9847;DHT22;4962;50.084;8.794;2022-10-18T14:29:41;21.60;99.90
9847;DHT22;4962;50.084;8.794;2022-10-18T14:32:10;21.50;99.90
9847;DHT22;4962;50.084;8.794;2022-10-18T14:34:49;21.50;99.90
9847;DHT22;4962;50.084;8.794;2022-10-18T14:37:24;21.50;99.90
9847;DHT22;4962;50.084;8.794;2022-10-18T14:39:51;21.50;99.90
9847;DHT22;4962;50.084;8.794;2022-10-18T14:42:19;21.40;99.90
9847;DHT22;4962;50.084;8.794;2022-10-18T14:44:47;21.40;99.90
9847;DHT22;4962;50.084;8.794;2022-10-18T14:47:19;21.40;99.90
9847;DHT22;4962;50.084;8.794;2022-10-18T14:49:47;21.30;99.90
9847;DHT22;4962;50.084;8.794;2022-10-18T14:52:16;21.30;99.90
9847;DHT22;4962;50.084;8.794;2022-10-18T14:54:45;21.30;99.90
9847;DHT22;4962;50.084;8.794;2022-10-18T14:57:18;21.20;99.90
9847;DHT22;4962;50.084;8.794;2022-10-18T14:59:47;21.20;99.90
9847;DHT22;4962;50.084;8.794;2022-10-18T15:02:20;21.20;99.90
9847;DHT22;4962;50.084;8.794;2022-10-18T15:04:55;21.10;99.90
9847;DHT22;4962;50.084;8.794;2022-10-18T15:07:23;21.10;99.90
9847;DHT22;4962;50.084;8.794;2022-10-18T15:09:56;21.10;99.90
9847;DHT22;4962;50.084;8.794;2022-10-18T15:12:24;21.10;99.90
9847;DHT22;4962;50.084;8.794;2022-10-18T15:14:52;21.10;99.90
9847;DHT22;4962;50.084;8.794;2022-10-18T15:17:22;21.00;99.90
9847;DHT22;4962;50.084;8.794;2022-10-18T15:19:55;21.00;99.90
9847;DHT22;4962;50.084;8.794;2022-10-18T15:22:24;21.00;99.90
9847;DHT22;4962;50.084;8.794;2022-10-18T15:25:22;21.00;99.90
9847;DHT22;4962;50.084;8.794;2022-10-18T15:27:51;20.90;99.90
9847;DHT22;4962;50.084;8.794;2022-10-18T15:30:23;20.90;99.90
9847;DHT22;4962;50.084;8.794;2022-10-18T15:32:53;20.90;99.90
9847;DHT22;4962;50.084;8.794;2022-10-18T15:35:23;20.90;99.90
9847;DHT22;4962;50.084;8.794;2022-10-18T15:37:51;20.80;99.90
9847;DHT22;4962;50.084;8.794;2022-10-18T15:40:34;20.80;99.80
9847;DHT22;4962;50.084;8.794;2022-10-18T15:43:03;20.70;99.80
9847;DHT22;4962;50.084;8.794;2022-10-18T15:45:36;20.70;99.90
9847;DHT22;4962;50.084;8.794;2022-10-18T15:48:20;20.70;99.90
9847;DHT22;4962;50.084;8.794;2022-10-18T15:50:49;20.60;99.90
9847;DHT22;4962;50.084;8.794;2022-10-18T15:53:30;20.60;99.90
9847;DHT22;4962;50.084;8.794;2022-10-18T15:56:00;20.60;99.90
9847;DHT22;4962;50.084;8.794;2022-10-18T15:58:29;20.60;99.90
9847;DHT22;4962;50.084;8.794;2022-10-18T16:00:59;20.50;99.90
9847;DHT22;4962;50.084;8.794;2022-10-18T16:03:26;20.50;99.90
9847;DHT22;4962;50.084;8.794;2022-10-18T16:05:58;20.50;99.90
9847;DHT22;4962;50.084;8.794;2022-10-18T16:08:26;20.40;99.90
9847;DHT22;4962;50.084;8.794;2022-10-18T16:10:55;20.40;99.90
9847;DHT22;4962;50.084;8.794;2022-10-18T16:13:24;20.40;99.90
9847;DHT22;4962;50.084;8.794;2022-10-18T16:15:51;20.30;99.90
9847;DHT22;4962;50.084;8.794;2022-10-18T16:18:20;20.30;99.90
9847;DHT22;4962;50.084;8.794;2022-10-18T16:21:22;20.30;99.90
9847;DHT22;4962;50.084;8.794;2022-10-18T16:23:50;20.20;99.90
9847;DHT22;4962;50.084;8.794;2022-10-18T16:26:17;20.20;99.90
9847;DHT22;4962;50.084;8.794;2022-10-18T16:28:45;20.10;99.90
9847;DHT22;4962;50.084;8.794;2022-10-18T16:31:15;20.20;99.90
9847;DHT22;4962;50.084;8.794;2022-10-18T16:33:42;20.10;99.90
9847;DHT22;4962;50.084;8.794;2022-10-18T16:36:12;20.10;99.90
9847;DHT22;4962;50.084;8.794;2022-10-18T16:38:41;20.00;99.90
9847;DHT22;4962;50.084;8.794;2022-10-18T16:41:08;20.00;99.90
9847;DHT22;4962;50.084;8.794;2022-10-18T16:43:35;20.00;99.90